createdAt,value
2019-05-19T00:00:06.895Z,35
2019-05-19T00:05:07.330Z,32
2019-05-19T00:10:06.316Z,34
2019-05-19T00:15:06.581Z,34
2019-05-19T00:20:06.554Z,32
2019-05-19T00:35:12.433Z,32
2019-05-19T00:40:07.274Z,34
2019-05-19T00:45:07.090Z,34
2019-05-19T00:50:07.334Z,35
2019-05-19T00:55:06.857Z,34
2019-05-19T01:00:08.874Z,33
2019-05-19T01:05:06.841Z,36
2019-05-19T01:10:06.950Z,33
2019-05-19T01:15:08.496Z,33
2019-05-19T01:20:07.031Z,33
2019-05-19T01:25:06.816Z,36
2019-05-19T01:30:07.253Z,33
2019-05-19T01:35:08.116Z,36
2019-05-19T01:40:07.246Z,35
2019-05-19T01:45:07.151Z,35
2019-05-19T01:50:17.661Z,34
2019-05-19T01:55:10.013Z,36
2019-05-19T02:00:07.566Z,33
2019-05-19T02:06:39.726Z,34
2019-05-19T02:10:06.984Z,34
2019-05-19T02:15:07.006Z,34
2019-05-19T02:20:07.263Z,33
2019-05-19T02:25:07.221Z,34
2019-05-19T02:30:07.298Z,34
2019-05-19T02:35:07.645Z,34
2019-05-19T02:40:06.719Z,34
2019-05-19T02:45:06.818Z,35
2019-05-19T02:50:06.923Z,34
2019-05-19T02:55:06.800Z,35
2019-05-19T03:00:07.208Z,34
2019-05-19T03:05:06.571Z,32
2019-05-19T03:10:06.649Z,35
2019-05-19T03:15:06.593Z,33
2019-05-19T03:20:06.661Z,33
2019-05-19T03:25:06.761Z,33
2019-05-19T03:30:07.008Z,33
2019-05-19T03:35:06.628Z,33
2019-05-19T03:40:06.760Z,31
2019-05-19T03:45:06.714Z,35
2019-05-19T03:50:06.725Z,33
2019-05-19T03:55:06.568Z,33
2019-05-19T04:00:06.621Z,32
2019-05-19T04:05:06.701Z,32
2019-05-19T04:10:06.940Z,33
2019-05-19T04:15:06.775Z,32
2019-05-19T04:20:09.319Z,32
2019-05-19T04:25:06.328Z,33
2019-05-19T04:30:06.534Z,32
2019-05-19T04:35:06.789Z,33
2019-05-19T04:40:06.603Z,33
2019-05-19T04:45:06.457Z,35
2019-05-19T04:50:06.622Z,33
2019-05-19T04:55:06.438Z,34
2019-05-19T05:00:06.388Z,33
2019-05-19T05:05:06.522Z,33
2019-05-19T05:10:06.450Z,33
2019-05-19T05:15:06.585Z,34
2019-05-19T05:20:06.512Z,32
2019-05-19T05:25:06.364Z,33
2019-05-19T05:30:07.199Z,33
2019-05-19T05:35:06.269Z,33
2019-05-19T05:40:06.511Z,30
2019-05-19T05:45:06.937Z,33
2019-05-19T05:50:06.469Z,32
2019-05-19T05:55:06.195Z,31
2019-05-19T06:00:06.390Z,32
2019-05-19T06:05:06.435Z,31
2019-05-19T06:10:06.298Z,31
2019-05-19T06:15:06.543Z,31
2019-05-19T06:20:07.144Z,33
2019-05-19T06:25:06.532Z,31
2019-05-19T06:30:10.461Z,32
2019-05-19T06:35:06.692Z,28
2019-05-19T06:40:06.453Z,29
2019-05-19T06:45:06.128Z,30
2019-05-19T06:50:07.122Z,29
2019-05-19T06:55:06.370Z,27
2019-05-19T07:00:06.960Z,28
2019-05-19T07:05:06.372Z,26
2019-05-19T07:10:06.200Z,27
2019-05-19T07:15:06.111Z,28
2019-05-19T07:20:06.628Z,28
2019-05-19T07:25:06.594Z,26
2019-05-19T07:30:06.442Z,25
2019-05-19T07:35:06.469Z,27
2019-05-19T07:40:06.162Z,27
2019-05-19T07:45:06.015Z,25
2019-05-19T07:50:06.517Z,25
2019-05-19T07:55:06.069Z,25
2019-05-19T08:00:06.385Z,26
2019-05-19T08:05:06.210Z,26
2019-05-19T08:10:06.251Z,25
2019-05-19T08:15:06.325Z,26
2019-05-19T08:20:06.351Z,24
2019-05-19T08:25:06.543Z,25
2019-05-19T08:30:06.291Z,26
2019-05-19T08:35:05.864Z,26
2019-05-19T08:40:06.410Z,24
2019-05-19T08:45:06.303Z,26
2019-05-19T08:50:06.271Z,26
2019-05-19T08:55:05.820Z,25
2019-05-19T09:00:06.373Z,25
2019-05-19T09:05:06.047Z,23
2019-05-19T09:10:06.042Z,25
2019-05-19T09:15:07.038Z,26
2019-05-19T09:20:06.686Z,23
2019-05-19T09:25:05.836Z,24
2019-05-19T09:30:06.597Z,24
2019-05-19T09:35:06.154Z,26
2019-05-19T09:40:09.661Z,24
2019-05-19T09:45:05.920Z,26
2019-05-19T09:50:06.404Z,25
2019-05-19T09:55:06.264Z,25
2019-05-19T10:00:06.293Z,23
2019-05-19T10:05:06.064Z,25
2019-05-19T10:10:05.938Z,24
2019-05-19T10:15:06.003Z,24
2019-05-19T10:20:06.594Z,26
2019-05-19T10:25:21.171Z,23
2019-05-19T10:30:06.007Z,23
2019-05-19T10:35:06.492Z,24
2019-05-19T10:40:06.095Z,25
2019-05-19T10:45:05.926Z,24
2019-05-19T10:50:06.208Z,24
2019-05-19T10:55:05.891Z,24
2019-05-19T11:00:05.841Z,24
2019-05-19T11:05:05.931Z,25
2019-05-19T11:10:05.945Z,24
2019-05-19T11:15:06.065Z,25
2019-05-19T11:20:06.298Z,25
2019-05-19T11:25:05.914Z,24
2019-05-19T11:30:07.116Z,23
2019-05-19T11:35:06.283Z,26
2019-05-19T11:40:06.732Z,23
2019-05-19T11:45:06.031Z,25
2019-05-19T11:50:07.319Z,24
2019-05-19T11:55:05.668Z,25
2019-05-19T12:00:07.322Z,26
2019-05-19T12:05:06.045Z,24
2019-05-19T12:10:05.890Z,25
2019-05-19T12:15:12.599Z,24
2019-05-19T12:20:05.894Z,27
2019-05-19T12:25:06.223Z,25
2019-05-19T12:30:07.946Z,26
2019-05-19T12:35:06.344Z,26
2019-05-19T12:40:07.060Z,28
2019-05-19T12:45:06.887Z,25
2019-05-19T12:50:07.658Z,26
2019-05-19T12:55:05.900Z,27
2019-05-19T13:00:06.570Z,27
2019-05-19T13:05:06.702Z,27
2019-05-19T13:10:05.736Z,26
2019-05-19T13:15:06.450Z,27
2019-05-19T13:20:06.067Z,24
2019-05-19T13:25:06.482Z,26
2019-05-19T13:30:06.684Z,28
2019-05-19T13:35:05.856Z,27
2019-05-19T13:40:06.767Z,27
2019-05-19T13:45:05.867Z,27
2019-05-19T13:50:05.747Z,27
2019-05-19T13:55:06.609Z,26
2019-05-19T14:00:05.943Z,25
2019-05-19T14:05:05.836Z,26
2019-05-19T14:10:05.849Z,26
2019-05-19T14:15:07.523Z,26
2019-05-19T14:20:05.973Z,24
2019-05-19T14:25:05.673Z,23
2019-05-19T14:30:06.010Z,25
2019-05-19T14:35:05.386Z,24
2019-05-19T14:40:05.982Z,23
2019-05-19T14:45:05.896Z,24
2019-05-19T14:50:05.736Z,24
2019-05-19T14:55:05.535Z,24
2019-05-19T15:00:05.970Z,24
2019-05-19T15:05:05.631Z,24
2019-05-19T15:10:06.025Z,25
2019-05-19T15:15:05.513Z,25
2019-05-19T15:20:05.609Z,25
2019-05-19T15:25:05.512Z,23
2019-05-19T15:30:12.913Z,24
2019-05-19T15:35:05.385Z,24
2019-05-19T15:40:12.157Z,23
2019-05-19T15:45:06.337Z,27
2019-05-19T15:50:05.660Z,25
2019-05-19T15:55:05.364Z,23
2019-05-19T16:00:05.346Z,25
2019-05-19T16:05:05.372Z,26
2019-05-19T16:10:05.399Z,24
2019-05-19T16:15:05.922Z,23
2019-05-19T16:40:10.709Z,26
2019-05-19T16:45:08.223Z,26
2019-05-19T17:05:16.490Z,26
2019-05-19T17:10:07.484Z,26
2019-05-19T17:15:18.817Z,26
2019-05-19T17:50:11.869Z,26
2019-05-19T17:55:07.425Z,26
2019-05-19T18:00:10.041Z,26
2019-05-19T18:05:07.375Z,26
2019-05-19T18:10:07.138Z,26
2019-05-19T18:15:07.152Z,26
2019-05-19T18:20:07.192Z,20
2019-05-19T18:25:07.319Z,21
2019-05-19T18:30:07.281Z,21
2019-05-19T18:35:07.430Z,22
2019-05-19T18:40:07.468Z,19
2019-05-19T18:45:07.114Z,21
2019-05-19T18:50:07.060Z,22
2019-05-19T18:55:07.140Z,17
2019-05-19T19:00:07.284Z,16
2019-05-19T19:05:07.239Z,20
2019-05-19T19:10:07.040Z,19
2019-05-19T19:15:07.502Z,19
2019-05-19T19:20:07.256Z,19
2019-05-19T19:25:07.411Z,18
2019-05-19T19:30:07.397Z,18
2019-05-19T19:35:07.016Z,16
2019-05-19T19:40:06.974Z,16
2019-05-19T19:45:07.241Z,19
2019-05-19T19:50:07.478Z,17
2019-05-19T20:25:09.930Z,20
2019-05-19T20:30:08.052Z,20
2019-05-19T20:55:09.225Z,20
2019-05-19T21:00:07.401Z,20
2019-05-19T21:05:07.210Z,20
2019-05-19T21:10:07.241Z,20
2019-05-19T21:15:07.663Z,20
2019-05-19T21:30:10.613Z,20
2019-05-19T21:35:07.755Z,20
2019-05-19T21:40:07.220Z,20
2019-05-19T21:45:07.150Z,20
2019-05-19T21:50:07.424Z,20
2019-05-19T21:55:07.012Z,20
2019-05-19T22:00:07.178Z,20
2019-05-19T22:05:07.028Z,20
2019-05-19T22:10:07.038Z,20
2019-05-19T22:15:07.139Z,20
2019-05-19T22:20:07.408Z,20
2019-05-19T22:25:07.304Z,20
2019-05-19T22:30:07.009Z,20
2019-05-19T22:35:07.484Z,20
2019-05-19T22:40:06.969Z,20
2019-05-19T22:45:07.217Z,20
2019-05-19T22:50:07.084Z,20
2019-05-19T22:55:07.324Z,20
2019-05-19T23:00:07.638Z,20
2019-05-19T23:05:07.381Z,20
2019-05-19T23:10:07.222Z,20
2019-05-19T23:15:07.203Z,16
2019-05-19T23:20:07.067Z,13
2019-05-19T23:25:07.150Z,12
2019-05-19T23:30:07.145Z,14
2019-05-19T23:35:06.829Z,13
2019-05-19T23:40:07.159Z,15
2019-05-19T23:45:07.078Z,17
2019-05-19T23:50:07.361Z,17
2019-05-19T23:55:06.887Z,18
